Time,TemperatureF,DewpointF,PressureIn,WindDirection,WindDirectionDegrees,WindSpeedMPH,WindSpeedGustMPH,Humidity,HourlyPrecipIn,Conditions,Clouds,dailyrainin,SoftwareType,DateUTC
2013-04-28 07:03:00,43.6,42.2,29.94,SW,225,2.9,2.9,95,0.00,,,0.00,WUHU216HW,2013-04-28 12:03:00,
2013-04-28 07:08:00,44.1,42.8,29.94,SW,225,2.5,2.9,95,0.00,,,0.00,WUHU216HW,2013-04-28 12:08:00,
2013-04-28 07:13:00,45.0,43.7,29.94,SW,225,1.8,3.4,95,0.00,,,0.00,WUHU216HW,2013-04-28 12:13:00,
2013-04-28 07:18:00,46.4,45.1,29.94,SW,225,3.4,3.4,95,0.00,,,0.00,WUHU216HW,2013-04-28 12:18:00,
2013-04-28 07:23:00,47.2,45.8,29.94,SW,225,2.0,3.4,95,0.00,,,0.00,WUHU216HW,2013-04-28 12:23:00,
2013-04-28 07:28:00,47.9,46.5,29.95,SW,225,3.8,4.3,95,0.00,,,0.00,WUHU216HW,2013-04-28 12:28:00,
2013-04-28 07:33:00,49.3,47.9,29.94,SSW,203,4.3,4.3,95,0.00,,,0.00,WUHU216HW,2013-04-28 12:33:00,
2013-04-28 07:38:00,50.4,48.7,29.94,SW,225,3.4,4.3,94,0.00,,,0.00,WUHU216HW,2013-04-28 12:38:00,
2013-04-28 07:43:00,50.2,48.3,29.94,SSE,158,3.8,5.6,93,0.00,,,0.00,WUHU216HW,2013-04-28 12:43:00,
2013-04-28 07:48:00,50.4,48.4,29.94,SSW,203,4.0,6.7,93,0.00,,,0.00,WUHU216HW,2013-04-28 12:48:00,
2013-04-28 07:53:00,51.1,49.2,29.93,SW,225,6.3,6.7,93,0.00,,,0.00,WUHU216HW,2013-04-28 12:53:00,
2013-04-28 07:58:00,51.5,49.1,29.94,SSW,203,4.3,6.3,92,0.00,,,0.00,WUHU216HW,2013-04-28 12:58:00,
2013-04-28 08:03:00,52.6,50.2,29.94,SSW,203,6.0,6.7,92,0.00,,,0.00,WUHU216HW,2013-04-28 13:03:00,
2013-04-28 08:08:00,52.6,49.7,29.94,SSW,203,6.0,7.8,90,0.00,,,0.00,WUHU216HW,2013-04-28 13:08:00,
2013-04-28 08:13:00,53.1,50.0,29.94,SSW,203,5.4,7.8,89,0.00,,,0.00,WUHU216HW,2013-04-28 13:13:00,
2013-04-28 08:18:00,53.5,50.0,29.94,SW,225,4.7,7.4,88,0.00,,,0.00,WUHU216HW,2013-04-28 13:18:00,
2013-04-28 08:23:00,53.8,50.3,29.94,SW,225,4.0,7.4,88,0.00,,,0.00,WUHU216HW,2013-04-28 13:23:00,
2013-04-28 08:28:00,54.7,50.6,29.94,SSW,203,8.1,8.1,86,0.00,,,0.00,WUHU216HW,2013-04-28 13:28:00,
2013-04-28 08:33:00,54.5,50.4,29.93,SSW,203,6.9,8.1,86,0.00,,,0.00,WUHU216HW,2013-04-28 13:33:00,
2013-04-28 08:38:00,54.7,50.9,29.93,SSW,203,8.7,8.7,87,0.00,,,0.00,WUHU216HW,2013-04-28 13:38:00,
2013-04-28 08:43:00,55.1,51.0,29.93,SW,225,5.6,10.1,86,0.00,,,0.00,WUHU216HW,2013-04-28 13:43:00,
2013-04-28 08:48:00,55.8,51.9,29.93,SW,225,6.7,10.1,87,0.00,,,0.00,WUHU216HW,2013-04-28 13:48:00,
2013-04-28 08:53:00,56.5,52.4,29.94,SW,225,6.3,6.9,86,0.00,,,0.00,WUHU216HW,2013-04-28 13:53:00,
2013-04-28 08:58:00,57.2,52.4,29.94,SW,225,11.0,11.0,84,0.00,,,0.00,WUHU216HW,2013-04-28 13:58:00,
2013-04-28 09:03:00,57.4,52.6,29.93,SW,225,9.6,11.0,84,0.00,,,0.00,WUHU216HW,2013-04-28 14:03:00,
2013-04-28 09:08:00,57.6,52.5,29.94,WSW,248,8.5,9.6,83,0.00,,,0.00,WUHU216HW,2013-04-28 14:08:00,
2013-04-28 09:13:00,58.1,53.0,29.93,WSW,248,4.3,10.5,83,0.00,,,0.00,WUHU216HW,2013-04-28 14:13:00,
2013-04-28 09:18:00,58.3,52.6,29.93,SSW,203,8.5,10.7,81,0.00,,,0.00,WUHU216HW,2013-04-28 14:18:00,
2013-04-28 09:23:00,58.9,53.1,29.93,SW,225,11.0,11.0,81,0.00,,,0.00,WUHU216HW,2013-04-28 14:23:00,
2013-04-28 09:28:00,59.2,52.7,29.93,SSW,203,8.9,11.0,79,0.00,,,0.00,WUHU216HW,2013-04-28 14:28:00,
2013-04-28 09:33:00,59.6,53.1,29.92,SSW,203,8.5,11.0,79,0.00,,,0.00,WUHU216HW,2013-04-28 14:33:00,
2013-04-28 09:38:00,60.8,54.4,29.92,SW,225,10.3,10.3,79,0.00,,,0.00,WUHU216HW,2013-04-28 14:38:00,
2013-04-28 09:43:00,60.8,53.3,29.91,SSW,203,12.5,12.5,76,0.00,,,0.00,WUHU216HW,2013-04-28 14:43:00,
2013-04-28 09:48:00,61.6,54.3,29.91,SW,225,7.8,12.5,77,0.00,,,0.00,WUHU216HW,2013-04-28 14:48:00,
2013-04-28 09:53:00,62.6,55.6,29.92,South,180,5.1,8.5,78,0.00,,,0.00,WUHU216HW,2013-04-28 14:53:00,
2013-04-28 09:58:00,63.2,54.7,29.93,South,180,8.3,9.4,74,0.00,,,0.00,WUHU216HW,2013-04-28 14:58:00,
2013-04-28 10:03:00,63.5,56.2,29.92,SSW,203,5.4,9.4,77,0.00,,,0.00,WUHU216HW,2013-04-28 15:03:00,
2013-04-28 10:08:00,63.7,56.0,29.92,SSW,203,6.3,8.3,76,0.00,,,0.00,WUHU216HW,2013-04-28 15:08:00,
2013-04-28 10:13:00,65.0,56.9,29.92,South,180,6.5,8.3,75,0.00,,,0.00,WUHU216HW,2013-04-28 15:13:00,
2013-04-28 10:18:00,65.5,56.3,29.92,SW,225,6.0,8.3,72,0.00,,,0.00,WUHU216HW,2013-04-28 15:18:00,
2013-04-28 10:23:00,65.7,56.8,29.92,WSW,248,7.4,7.4,73,0.00,,,0.00,WUHU216HW,2013-04-28 15:23:00,
2013-04-28 10:28:00,66.1,57.2,29.92,SSW,203,6.3,8.5,73,0.00,,,0.00,WUHU216HW,2013-04-28 15:28:00,
2013-04-28 10:33:00,66.8,58.2,29.91,SSW,203,5.6,8.5,74,0.00,,,0.00,WUHU216HW,2013-04-28 15:33:00,
2013-04-28 10:38:00,67.0,57.6,29.91,SSW,203,6.7,6.7,72,0.00,,,0.00,WUHU216HW,2013-04-28 15:38:00,
2013-04-28 10:43:00,67.1,58.2,29.91,South,180,8.9,8.9,73,0.00,,,0.00,WUHU216HW,2013-04-28 15:43:00,
2013-04-28 10:48:00,68.2,57.7,29.91,SW,225,6.3,9.6,69,0.00,,,0.00,WUHU216HW,2013-04-28 15:48:00,
2013-04-28 10:53:00,68.2,58.2,29.91,SSW,203,7.2,9.6,70,0.00,,,0.00,WUHU216HW,2013-04-28 15:53:00,
2013-04-28 10:58:00,68.6,58.1,29.91,SW,225,7.6,7.6,69,0.00,,,0.00,WUHU216HW,2013-04-28 15:58:00,
2013-04-28 11:03:00,67.9,59.0,29.92,SSW,203,9.8,9.8,73,0.00,,,0.00,WUHU216HW,2013-04-28 16:03:00,
2013-04-28 11:08:00,67.3,58.4,29.92,SSW,203,8.3,9.8,73,0.00,,,0.00,WUHU216HW,2013-04-28 16:08:00,
2013-04-28 11:13:00,67.9,59.3,29.91,South,180,7.4,9.8,74,0.00,,,0.00,WUHU216HW,2013-04-28 16:13:00,
2013-04-28 11:18:00,68.4,58.3,29.91,SSW,203,9.4,12.3,70,0.00,,,0.00,WUHU216HW,2013-04-28 16:18:00,
2013-04-28 11:23:00,68.4,59.4,29.91,SSW,203,7.2,12.3,73,0.00,,,0.00,WUHU216HW,2013-04-28 16:23:00,
2013-04-28 11:28:00,68.8,58.6,29.91,SSW,203,9.8,10.3,70,0.00,,,0.00,WUHU216HW,2013-04-28 16:28:00,
2013-04-28 11:33:00,69.3,59.9,29.91,SSW,203,12.5,12.5,72,0.00,,,0.00,WUHU216HW,2013-04-28 16:33:00,
2013-04-28 11:38:00,69.1,58.5,29.91,SW,225,9.6,12.5,69,0.00,,,0.00,WUHU216HW,2013-04-28 16:38:00,
2013-04-28 11:43:00,69.5,59.7,29.90,South,180,6.7,12.5,71,0.00,,,0.00,WUHU216HW,2013-04-28 16:43:00,
2013-04-28 11:48:00,69.3,59.9,29.90,SW,225,6.5,7.6,72,0.00,,,0.00,WUHU216HW,2013-04-28 16:48:00,
2013-04-28 11:53:00,68.6,59.9,29.90,South,180,9.2,11.6,74,0.00,,,0.00,WUHU216HW,2013-04-28 16:53:00,
2013-04-28 11:58:00,69.1,60.9,29.90,SSW,203,10.7,11.6,75,0.00,,,0.00,WUHU216HW,2013-04-28 16:58:00,
2013-04-28 12:03:00,69.3,60.6,29.90,SSW,203,6.9,10.7,74,0.00,,,0.00,WUHU216HW,2013-04-28 17:03:00,
2013-04-28 12:08:00,68.9,60.0,29.90,SSW,203,6.3,7.2,73,0.00,,,0.00,WUHU216HW,2013-04-28 17:08:00,
2013-04-28 12:13:00,69.1,59.7,29.90,SW,225,9.8,9.8,72,0.00,,,0.00,WUHU216HW,2013-04-28 17:13:00,
2013-04-28 12:18:00,68.8,58.6,29.90,SW,225,10.5,13.0,70,0.00,,,0.00,WUHU216HW,2013-04-28 17:18:00,
2013-04-28 12:23:00,68.9,60.3,29.90,South,180,7.4,13.0,74,0.00,,,0.00,WUHU216HW,2013-04-28 17:23:00,
2013-04-28 12:28:00,69.7,60.2,29.89,South,180,7.8,9.8,72,0.00,,,0.00,WUHU216HW,2013-04-28 17:28:00,
2013-04-28 12:33:00,70.2,59.9,29.89,SSE,158,9.2,9.8,70,0.00,,,0.00,WUHU216HW,2013-04-28 17:33:00,
2013-04-28 12:38:00,70.7,60.0,29.89,SW,225,9.2,11.4,69,0.00,,,0.00,WUHU216HW,2013-04-28 17:38:00,
2013-04-28 12:43:00,70.6,61.8,29.89,SSW,203,13.2,13.2,74,0.00,,,0.00,WUHU216HW,2013-04-28 17:43:00,
2013-04-28 12:48:00,70.6,61.0,29.88,SW,225,12.3,13.2,72,0.00,,,0.00,WUHU216HW,2013-04-28 17:48:00,
2013-04-28 12:53:00,71.1,60.0,29.88,SSW,203,5.4,12.3,68,0.00,,,0.00,WUHU216HW,2013-04-28 17:53:00,
2013-04-28 12:58:00,70.9,59.4,29.88,SSW,203,9.6,12.3,67,0.00,,,0.00,WUHU216HW,2013-04-28 17:58:00,
2013-04-28 13:03:00,71.6,60.5,29.87,SSW,203,7.8,12.3,68,0.00,,,0.00,WUHU216HW,2013-04-28 18:03:00,
2013-04-28 13:08:00,71.6,61.4,29.87,WSW,248,7.4,8.1,70,0.00,,,0.00,WUHU216HW,2013-04-28 18:08:00,
2013-04-28 13:13:00,71.6,60.9,29.87,SSW,203,11.0,11.4,69,0.00,,,0.00,WUHU216HW,2013-04-28 18:13:00,
2013-04-28 13:18:00,72.0,62.1,29.87,SSW,203,8.5,11.4,71,0.00,,,0.00,WUHU216HW,2013-04-28 18:18:00,
2013-04-28 13:23:00,72.9,63.4,29.86,SSW,203,7.8,9.2,72,0.00,,,0.00,WUHU216HW,2013-04-28 18:23:00,
2013-04-28 13:28:00,73.3,62.6,29.86,SSW,203,12.3,12.3,69,0.00,,,0.00,WUHU216HW,2013-04-28 18:28:00,
2013-04-28 13:33:00,72.9,61.7,29.86,SSW,203,10.1,12.3,68,0.00,,,0.00,WUHU216HW,2013-04-28 18:33:00,
2013-04-28 13:38:00,73.1,60.6,29.86,SSW,203,8.3,12.3,65,0.00,,,0.00,WUHU216HW,2013-04-28 18:38:00,
2013-04-28 13:43:00,72.9,60.8,29.86,SSE,158,6.9,10.1,66,0.00,,,0.00,WUHU216HW,2013-04-28 18:43:00,
2013-04-28 13:48:00,73.6,63.4,29.85,South,180,9.2,9.2,70,0.00,,,0.00,WUHU216HW,2013-04-28 18:48:00,
2013-04-28 13:53:00,74.0,62.8,29.85,SSW,203,8.5,11.2,68,0.00,,,0.00,WUHU216HW,2013-04-28 18:53:00,
2013-04-28 13:58:00,74.3,63.1,29.85,South,180,7.2,11.2,68,0.00,,,0.00,WUHU216HW,2013-04-28 18:58:00,
2013-04-28 14:03:00,74.5,62.4,29.85,South,180,5.8,9.8,66,0.00,,,0.00,WUHU216HW,2013-04-28 19:03:00,
2013-04-28 14:08:00,74.9,61.0,29.85,SSW,203,5.4,8.3,62,0.00,,,0.00,WUHU216HW,2013-04-28 19:08:00,
2013-04-28 14:13:00,74.9,61.8,29.84,South,180,5.4,7.4,64,0.00,,,0.00,WUHU216HW,2013-04-28 19:13:00,
2013-04-28 14:18:00,75.6,63.8,29.84,SSW,203,6.3,8.9,67,0.00,,,0.00,WUHU216HW,2013-04-28 19:18:00,
2013-04-28 14:23:00,75.6,63.0,29.83,South,180,7.4,8.9,65,0.00,,,0.00,WUHU216HW,2013-04-28 19:23:00,
2013-04-28 14:28:00,74.7,60.4,29.83,SE,135,8.1,8.1,61,0.00,,,0.00,WUHU216HW,2013-04-28 19:28:00,
2013-04-28 14:33:00,74.7,61.7,29.83,SSW,203,9.2,9.8,64,0.00,,,0.00,WUHU216HW,2013-04-28 19:33:00,
2013-04-28 14:38:00,75.2,61.4,29.83,SSE,158,11.9,11.9,62,0.00,,,0.00,WUHU216HW,2013-04-28 19:38:00,
2013-04-28 14:43:00,75.4,61.1,29.83,South,180,8.5,11.9,61,0.00,,,0.00,WUHU216HW,2013-04-28 19:43:00,
2013-04-28 14:48:00,75.2,60.5,29.83,SSE,158,12.8,12.8,60,0.00,,,0.00,WUHU216HW,2013-04-28 19:48:00,
2013-04-28 14:53:00,75.4,59.7,29.82,SSE,158,6.9,12.8,58,0.00,,,0.00,WUHU216HW,2013-04-28 19:53:00,
2013-04-28 14:58:00,75.4,61.1,29.82,South,180,10.7,12.8,61,0.00,,,0.00,WUHU216HW,2013-04-28 19:58:00,
2013-04-28 15:03:00,76.5,63.4,29.81,South,180,8.3,10.7,64,0.00,,,0.00,WUHU216HW,2013-04-28 20:03:00,
2013-04-28 15:08:00,76.7,62.6,29.81,SSW,203,7.8,8.3,62,0.00,,,0.00,WUHU216HW,2013-04-28 20:08:00,
2013-04-28 15:13:00,76.7,63.1,29.81,SSW,203,6.3,8.5,63,0.00,,,0.00,WUHU216HW,2013-04-28 20:13:00,
2013-04-28 15:18:00,76.7,61.3,29.80,SSW,203,11.2,11.2,59,0.00,,,0.00,WUHU216HW,2013-04-28 20:18:00,
2013-04-28 15:23:00,76.9,61.9,29.80,SSW,203,9.2,11.2,60,0.00,,,0.00,WUHU216HW,2013-04-28 20:23:00,
2013-04-28 15:28:00,77.0,62.6,29.80,SSE,158,7.4,10.1,61,0.00,,,0.00,WUHU216HW,2013-04-28 20:28:00,
2013-04-28 15:33:00,77.2,61.7,29.80,SW,225,7.2,10.1,59,0.00,,,0.00,WUHU216HW,2013-04-28 20:33:00,
2013-04-28 15:38:00,77.6,62.6,29.80,SW,225,8.7,10.5,60,0.00,,,0.00,WUHU216HW,2013-04-28 20:38:00,
2013-04-28 15:43:00,77.4,59.4,29.79,SW,225,7.6,10.5,54,0.00,,,0.00,WUHU216HW,2013-04-28 20:43:00,
2013-04-28 15:48:00,76.9,60.4,29.79,SSE,158,11.0,11.0,57,0.00,,,0.00,WUHU216HW,2013-04-28 20:48:00,
2013-04-28 15:52:00,76.7,62.2,29.79,SSW,203,6.5,11.0,61,0.00,,,0.00,WUHU216HW,2013-04-28 20:52:00,
2013-04-28 15:58:00,76.5,58.1,29.79,WSW,248,8.7,11.4,53,0.00,,,0.00,WUHU216HW,2013-04-28 20:58:00,
2013-04-28 16:02:00,76.3,59.9,29.78,South,180,10.3,11.4,57,0.00,,,0.00,WUHU216HW,2013-04-28 21:02:00,
2013-04-28 16:07:00,76.7,60.3,29.78,SSE,158,8.7,11.9,57,0.00,,,0.00,WUHU216HW,2013-04-28 21:07:00,
2013-04-28 16:12:00,76.7,61.3,29.78,South,180,7.6,11.9,59,0.00,,,0.00,WUHU216HW,2013-04-28 21:12:00,
2013-04-28 16:17:00,77.0,59.0,29.78,SW,225,10.5,10.5,54,0.00,,,0.00,WUHU216HW,2013-04-28 21:17:00,
2013-04-28 16:22:00,76.9,60.4,29.78,SSE,158,5.1,10.5,57,0.00,,,0.00,WUHU216HW,2013-04-28 21:22:00,
2013-04-28 16:27:00,76.5,59.6,29.77,SW,225,8.3,10.5,56,0.00,,,0.00,WUHU216HW,2013-04-28 21:27:00,
2013-04-28 16:32:00,76.3,59.9,29.77,SSW,203,7.6,12.1,57,0.00,,,0.00,WUHU216HW,2013-04-28 21:32:00,
2013-04-28 16:37:00,76.3,60.9,29.77,SSW,203,6.3,12.1,59,0.00,,,0.00,WUHU216HW,2013-04-28 21:37:00,
2013-04-28 16:42:00,76.1,59.8,29.76,SW,225,13.4,14.3,57,0.00,,,0.00,WUHU216HW,2013-04-28 21:42:00,
2013-04-28 16:47:00,76.1,60.8,29.76,SW,225,11.9,14.3,59,0.00,,,0.00,WUHU216HW,2013-04-28 21:47:00,
2013-04-28 16:52:00,76.1,58.8,29.76,SSW,203,12.1,13.4,55,0.00,,,0.00,WUHU216HW,2013-04-28 21:52:00,
2013-04-28 16:57:00,76.3,60.5,29.76,SSW,203,8.1,12.1,58,0.00,,,0.00,WUHU216HW,2013-04-28 21:57:00,
2013-04-28 17:02:00,76.3,59.0,29.76,SSW,203,12.5,13.4,55,0.00,,,0.00,WUHU216HW,2013-04-28 22:02:00,
2013-04-28 17:07:00,76.5,60.1,29.75,SSE,158,7.6,13.4,57,0.00,,,0.00,WUHU216HW,2013-04-28 22:07:00,
2013-04-28 17:12:00,76.7,59.8,29.75,South,180,8.5,12.5,56,0.00,,,0.00,WUHU216HW,2013-04-28 22:12:00,
2013-04-28 17:17:00,76.5,60.1,29.75,South,180,7.8,9.2,57,0.00,,,0.00,WUHU216HW,2013-04-28 22:17:00,
2013-04-28 17:22:00,77.8,59.8,29.75,SSW,203,12.1,12.1,54,0.00,,,0.00,WUHU216HW,2013-04-28 22:22:00,
2013-04-28 17:27:00,77.4,60.4,29.75,SW,225,6.9,12.1,56,0.00,,,0.00,WUHU216HW,2013-04-28 22:27:00,
2013-04-28 17:32:00,76.7,59.2,29.75,SSW,203,13.4,13.4,55,0.00,,,0.00,WUHU216HW,2013-04-28 22:32:00,
2013-04-28 17:37:00,77.6,59.0,29.75,SSE,158,9.8,13.4,53,0.00,,,0.00,WUHU216HW,2013-04-28 22:37:00,
2013-04-28 17:42:00,77.6,60.1,29.75,South,180,8.1,13.4,55,0.00,,,0.00,WUHU216HW,2013-04-28 22:42:00,
2013-04-28 17:47:00,77.4,59.4,29.75,SSW,203,8.3,12.8,54,0.00,,,0.00,WUHU216HW,2013-04-28 22:47:00,
2013-04-28 17:52:00,77.4,59.0,29.74,SSW,203,7.8,11.9,53,0.00,,,0.00,WUHU216HW,2013-04-28 22:52:00,
2013-04-28 17:57:00,77.8,59.8,29.74,SSW,203,10.1,10.5,54,0.00,,,0.00,WUHU216HW,2013-04-28 22:57:00,
2013-04-28 18:02:00,78.1,60.1,29.74,SW,225,8.3,10.1,54,0.00,,,0.00,WUHU216HW,2013-04-28 23:02:00,
2013-04-28 18:07:00,78.5,58.9,29.74,South,180,11.4,11.4,51,0.00,,,0.00,WUHU216HW,2013-04-28 23:07:00,
2013-04-28 18:12:00,78.5,58.9,29.74,SSW,203,9.8,11.4,51,0.00,,,0.00,WUHU216HW,2013-04-28 23:12:00,
2013-04-28 18:17:00,78.3,59.8,29.74,South,180,8.1,9.8,53,0.00,,,0.00,WUHU216HW,2013-04-28 23:17:00,
2013-04-28 18:22:00,78.7,60.1,29.74,South,180,7.6,9.8,53,0.00,,,0.00,WUHU216HW,2013-04-28 23:22:00,
2013-04-28 18:27:00,79.2,60.6,29.74,SSE,158,5.6,10.1,53,0.00,,,0.00,WUHU216HW,2013-04-28 23:27:00,
2013-04-28 18:32:00,78.7,59.1,29.74,SSE,158,11.0,11.0,51,0.00,,,0.00,WUHU216HW,2013-04-28 23:32:00,
2013-04-28 18:37:00,76.9,57.9,29.74,South,180,10.3,11.0,52,0.00,,,0.00,WUHU216HW,2013-04-28 23:37:00,
2013-04-28 18:42:00,76.0,59.1,29.74,SSE,158,11.6,11.6,56,0.00,,,0.00,WUHU216HW,2013-04-28 23:42:00,
2013-04-28 18:47:00,76.9,59.0,29.73,South,180,7.6,11.6,54,0.00,,,0.00,WUHU216HW,2013-04-28 23:47:00,
2013-04-28 18:52:00,77.0,59.0,29.73,SSW,203,7.6,7.6,54,0.00,,,0.00,WUHU216HW,2013-04-28 23:52:00,
2013-04-28 18:57:00,77.8,59.8,29.73,South,180,5.4,7.6,54,0.00,,,0.00,WUHU216HW,2013-04-28 23:57:00,
2013-04-28 19:02:00,77.0,59.0,29.73,SSW,203,7.6,8.9,54,0.00,,,0.00,WUHU216HW,2013-04-29 00:02:00,
2013-04-28 19:07:00,76.7,59.2,29.73,South,180,6.3,8.9,55,0.00,,,0.00,WUHU216HW,2013-04-29 00:07:00,
2013-04-28 19:12:00,76.0,59.1,29.73,SSW,203,7.6,9.2,56,0.00,,,0.00,WUHU216HW,2013-04-29 00:12:00,
2013-04-28 19:17:00,74.2,58.4,29.73,SW,225,6.0,9.2,58,0.00,,,0.00,WUHU216HW,2013-04-29 00:17:00,
2013-04-28 19:22:00,72.2,58.0,29.73,South,180,5.4,7.6,61,0.00,,,0.00,WUHU216HW,2013-04-29 00:22:00,
2013-04-28 19:27:00,70.9,57.2,29.73,South,180,7.4,7.4,62,0.00,,,0.00,WUHU216HW,2013-04-29 00:27:00,
2013-04-28 19:32:00,70.2,57.4,29.73,South,180,4.7,8.7,64,0.00,,,0.00,WUHU216HW,2013-04-29 00:32:00,
2013-04-28 19:37:00,69.8,57.5,29.73,SSE,158,6.7,8.7,65,0.00,,,0.00,WUHU216HW,2013-04-29 00:37:00,
2013-04-28 19:42:00,69.5,57.2,29.73,SSE,158,5.4,8.5,65,0.00,,,0.00,WUHU216HW,2013-04-29 00:42:00,
2013-04-28 19:47:00,68.9,57.1,29.73,SSE,158,5.8,8.3,66,0.00,,,0.00,WUHU216HW,2013-04-29 00:47:00,
2013-04-28 19:52:00,68.4,57.0,29.73,SSE,158,6.5,8.5,67,0.00,,,0.00,WUHU216HW,2013-04-29 00:52:00,
2013-04-28 19:57:00,67.9,56.9,29.73,SSW,203,4.5,8.5,68,0.00,,,0.00,WUHU216HW,2013-04-29 00:57:00,
2013-04-28 20:02:00,67.7,57.2,29.73,SSE,158,5.4,8.5,69,0.00,,,0.00,WUHU216HW,2013-04-29 01:02:00,
2013-04-28 20:07:00,67.1,57.4,29.73,South,180,6.9,9.2,71,0.00,,,0.00,WUHU216HW,2013-04-29 01:07:00,
2013-04-28 20:12:00,66.6,56.5,29.73,South,180,6.5,9.2,70,0.00,,,0.00,WUHU216HW,2013-04-29 01:12:00,
2013-04-28 20:17:00,66.1,57.2,29.73,SSE,158,5.6,8.3,73,0.00,,,0.00,WUHU216HW,2013-04-29 01:17:00,
2013-04-28 20:22:00,65.9,57.0,29.73,SSE,158,5.6,7.6,73,0.00,,,0.00,WUHU216HW,2013-04-29 01:22:00,
2013-04-28 20:27:00,65.5,57.0,29.74,South,180,4.0,7.6,74,0.00,,,0.00,WUHU216HW,2013-04-29 01:27:00,
2013-04-28 20:32:00,65.3,56.8,29.73,SSW,203,6.9,8.3,74,0.00,,,0.00,WUHU216HW,2013-04-29 01:32:00,
2013-04-28 20:37:00,65.2,56.7,29.73,SSE,158,7.6,8.3,74,0.00,,,0.00,WUHU216HW,2013-04-29 01:37:00,
2013-04-28 20:42:00,64.8,56.4,29.73,South,180,6.3,7.8,74,0.00,,,0.00,WUHU216HW,2013-04-29 01:42:00,
2013-04-28 20:47:00,64.4,56.7,29.73,SE,135,6.9,7.6,76,0.00,,,0.00,WUHU216HW,2013-04-29 01:47:00,
2013-04-28 20:52:00,64.3,56.5,29.73,South,180,6.3,6.9,76,0.00,,,0.00,WUHU216HW,2013-04-29 01:52:00,
2013-04-28 20:57:00,64.1,56.0,29.73,SSW,203,5.8,6.3,75,0.00,,,0.00,WUHU216HW,2013-04-29 01:57:00,
2013-04-28 21:02:00,63.7,56.7,29.73,SSE,158,6.9,7.6,78,0.00,,,0.00,WUHU216HW,2013-04-29 02:02:00,
2013-04-28 21:07:00,63.5,56.5,29.73,South,180,6.3,7.6,78,0.00,,,0.00,WUHU216HW,2013-04-29 02:07:00,
2013-04-28 21:12:00,63.4,56.0,29.74,South,180,5.4,6.3,77,0.00,,,0.00,WUHU216HW,2013-04-29 02:12:00,
2013-04-28 21:17:00,63.2,55.8,29.74,SSE,158,6.3,6.3,77,0.00,,,0.00,WUHU216HW,2013-04-29 02:17:00,
2013-04-28 21:22:00,62.8,55.8,29.74,SE,135,4.0,6.5,78,0.00,,,0.00,WUHU216HW,2013-04-29 02:22:00,
2013-04-28 21:27:00,62.6,55.6,29.74,South,180,6.0,7.4,78,0.00,,,0.00,WUHU216HW,2013-04-29 02:27:00,
2013-04-28 21:32:00,62.3,55.6,29.74,SE,135,7.6,7.6,79,0.00,,,0.00,WUHU216HW,2013-04-29 02:32:00,
2013-04-28 21:37:00,62.3,55.6,29.74,SSE,158,6.5,7.6,79,0.00,,,0.00,WUHU216HW,2013-04-29 02:37:00,
2013-04-28 21:42:00,62.3,56.0,29.75,South,180,4.9,7.6,80,0.00,,,0.00,WUHU216HW,2013-04-29 02:42:00,
2013-04-28 21:47:00,62.1,56.2,29.74,SSE,158,4.7,7.6,81,0.00,,,0.00,WUHU216HW,2013-04-29 02:47:00,
2013-04-28 21:52:00,61.9,56.1,29.74,SSE,158,5.6,6.9,81,0.00,,,0.00,WUHU216HW,2013-04-29 02:52:00,
2013-04-28 21:57:00,61.7,56.2,29.74,South,180,6.3,6.3,82,0.00,,,0.00,WUHU216HW,2013-04-29 02:57:00,
2013-04-28 22:02:00,61.7,56.2,29.75,SSW,203,7.6,7.6,82,0.00,,,0.00,WUHU216HW,2013-04-29 03:02:00,
2013-04-28 22:07:00,61.9,56.1,29.75,SSE,158,5.4,7.6,81,0.00,,,0.00,WUHU216HW,2013-04-29 03:07:00,
2013-04-28 22:12:00,61.7,55.9,29.75,SSE,158,6.7,9.4,81,0.00,,,0.00,WUHU216HW,2013-04-29 03:12:00,
2013-04-28 22:17:00,61.7,55.9,29.75,South,180,4.7,9.4,81,0.00,,,0.00,WUHU216HW,2013-04-29 03:17:00,
2013-04-28 22:22:00,61.6,55.7,29.75,SSW,203,6.3,10.7,81,0.00,,,0.00,WUHU216HW,2013-04-29 03:22:00,
2013-04-28 22:27:00,61.6,55.7,29.75,SSW,203,5.4,10.7,81,0.00,,,0.00,WUHU216HW,2013-04-29 03:27:00,
2013-04-28 22:32:00,61.6,56.1,29.75,South,180,6.3,6.3,82,0.00,,,0.00,WUHU216HW,2013-04-29 03:32:00,
2013-04-28 22:37:00,61.4,55.9,29.75,South,180,4.9,8.5,82,0.00,,,0.00,WUHU216HW,2013-04-29 03:37:00,
2013-04-28 22:42:00,61.2,55.7,29.75,SSE,158,4.7,8.5,82,0.00,,,0.00,WUHU216HW,2013-04-29 03:42:00,
2013-04-28 22:47:00,61.2,55.7,29.75,SSW,203,5.6,7.2,82,0.00,,,0.00,WUHU216HW,2013-04-29 03:47:00,
2013-04-28 22:52:00,61.0,55.9,29.75,SSE,158,6.9,6.9,83,0.00,,,0.00,WUHU216HW,2013-04-29 03:52:00,
2013-04-28 22:57:00,60.8,55.7,29.75,South,180,4.9,6.9,83,0.00,,,0.00,WUHU216HW,2013-04-29 03:57:00,
2013-04-28 23:01:00,60.8,55.4,29.75,SSE,158,5.4,6.9,82,0.00,,,0.00,WUHU216HW,2013-04-29 04:01:00,
2013-04-28 23:02:00,60.7,55.5,29.74,SSW,203,4.7,6.9,83,0.00,,,0.00,WUHU216HW,2013-04-29 04:02:00,
2013-04-28 23:07:00,60.7,55.5,29.75,SW,225,9.6,9.6,83,0.00,,,0.00,WUHU216HW,2013-04-29 04:07:00,
2013-04-28 23:12:00,60.7,55.5,29.75,South,180,4.0,9.6,83,0.00,,,0.00,WUHU216HW,2013-04-29 04:12:00,
2013-04-28 23:17:00,60.5,55.4,29.74,SSE,158,5.4,9.6,83,0.00,,,0.00,WUHU216HW,2013-04-29 04:17:00,
2013-04-28 23:22:00,60.1,55.0,29.75,SSE,158,5.1,5.8,83,0.00,,,0.00,WUHU216HW,2013-04-29 04:22:00,
2013-04-28 23:27:00,59.8,54.6,29.74,SSW,203,7.4,7.4,83,0.00,,,0.00,WUHU216HW,2013-04-29 04:27:00,
2013-04-28 23:32:00,59.6,54.5,29.74,South,180,5.8,7.4,83,0.00,,,0.00,WUHU216HW,2013-04-29 04:32:00,
2013-04-28 23:37:00,59.4,54.5,29.74,SSE,158,5.8,6.0,84,0.00,,,0.00,WUHU216HW,2013-04-29 04:37:00,
2013-04-28 23:42:00,59.2,55.1,29.74,South,180,7.6,7.6,86,0.00,,,0.00,WUHU216HW,2013-04-29 04:42:00,
2013-04-28 23:47:00,59.2,55.1,29.74,South,180,4.7,7.6,86,0.00,,,0.00,WUHU216HW,2013-04-29 04:47:00,
2013-04-28 23:52:00,59.0,54.2,29.75,SSE,158,4.9,7.6,84,0.00,,,0.00,WUHU216HW,2013-04-29 04:52:00,
2013-04-28 23:57:00,58.9,54.4,29.74,SSE,158,6.9,8.5,85,0.00,,,0.00,WUHU216HW,2013-04-29 04:57:00,